Time;durP1;ratioP1;P1;durP2;ratioP2;P2;SDS_P1;SDS_P2;PMS_P1;PMS_P2;Temp;Humidity;BMP_temperature;BMP_pressure;BME280_temperature;BME280_humidity;BME280_pressure;Samples;Min_cycle;Max_cycle;Signal;HPM_P1;HPM_P2
2022/12/19 00:00:21;;;;;;;36.17;20.77;;;4.30;69.10;;;;;;5042083;28;20051;-62
2022/12/19 00:02:48;;;;;;;36.20;22.73;;;4.30;69.10;;;;;;5027864;28;20049;-62
2022/12/19 00:05:21;;;;;;;40.65;23.15;;;4.30;69.20;;;;;;5046250;28;20478;-62
2022/12/19 00:07:50;;;;;;;;;;;4.30;69.30;;;;;;5024033;28;20052;-62
2022/12/19 00:10:16;;;;;;;39.30;21.05;;;4.30;69.80;;;;;;5043301;28;19924;-62
2022/12/19 00:12:43;;;;;;;38.42;21.27;;;4.30;69.00;;;;;;5028456;28;20046;-62
2022/12/19 00:15:10;;;;;;;32.60;20.20;;;4.30;69.20;;;;;;5032903;28;20061;-62
2022/12/19 00:17:37;;;;;;;35.97;21.50;;;4.30;69.40;;;;;;5040963;28;20039;-62
2022/12/19 00:20:04;;;;;;;37.00;22.00;;;4.30;69.40;;;;;;5043147;28;20441;-62
2022/12/19 00:22:40;;;;;;;34.42;22.00;;;4.30;69.50;;;;;;5036476;28;20045;-62
2022/12/19 00:25:07;;;;;;;40.15;21.73;;;4.40;69.60;;;;;;5034984;28;20124;-63
2022/12/19 00:27:36;;;;;;;33.45;21.23;;;4.30;70.20;;;;;;5039386;28;20145;-62
2022/12/19 00:30:05;;;;;;;34.33;20.80;;;4.30;69.60;;;;;;5010364;28;20597;-62
2022/12/19 00:32:36;;;;;;;37.38;21.55;;;4.40;69.70;;;;;;5031715;28;20037;-62
2022/12/19 00:35:08;;;;;;;37.15;21.23;;;4.40;69.80;;;;;;5014263;28;20503;-62
2022/12/19 00:37:35;;;;;;;39.72;22.58;;;4.40;69.80;;;;;;5042472;28;20465;-62
2022/12/19 00:40:05;;;;;;;37.20;22.02;;;4.40;69.90;;;;;;5047120;28;20049;-62
2022/12/19 00:42:35;;;;;;;38.20;23.85;;;4.40;70.00;;;;;;5026486;28;20049;-62
2022/12/19 00:45:04;;;;;;;39.55;22.50;;;4.40;70.00;;;;;;5017814;28;20037;-62
2022/12/19 00:47:32;;;;;;;36.72;22.73;;;4.40;70.10;;;;;;5040927;28;20136;-62
2022/12/19 00:50:01;;;;;;;33.65;21.83;;;4.40;70.20;;;;;;5051332;28;20047;-62
2022/12/19 00:52:27;;;;;;;37.78;21.95;;;4.50;70.30;;;;;;5034216;28;20050;-62
2022/12/19 00:55:01;;;;;;;35.92;22.02;;;4.50;70.30;;;;;;5023489;28;20045;-62
2022/12/19 00:57:30;;;;;;;39.78;22.02;;;4.50;70.40;;;;;;5048345;28;20041;-62
2022/12/19 00:59:57;;;;;;;40.78;22.33;;;4.50;70.30;;;;;;5050982;28;20043;-62
2022/12/19 01:02:26;;;;;;;35.42;21.83;;;4.50;70.40;;;;;;5036051;28;20091;-62
2022/12/19 01:04:55;;;;;;;39.05;21.88;;;4.50;70.30;;;;;;5027838;28;20095;-62
2022/12/19 01:07:24;;;;;;;38.50;22.58;;;4.50;70.40;;;;;;5014244;28;20116;-62
2022/12/19 01:09:51;;;;;;;34.30;20.50;;;4.50;70.40;;;;;;5003033;28;20054;-62
2022/12/19 01:15:03;;;;;;;36.63;21.40;;;4.50;70.40;;;;;;5020928;28;20071;-62
2022/12/19 01:17:33;;;;;;;32.33;20.90;;;4.60;70.40;;;;;;5041753;28;20163;-62
2022/12/19 01:20:17;;;;;;;34.17;21.33;;;4.60;70.50;;;;;;5037255;28;20068;-62
2022/12/19 01:23:02;;;;;;;35.30;21.55;;;4.60;70.60;;;;;;5047967;28;20052;-62
2022/12/19 01:25:29;;;;;;;37.67;21.92;;;4.60;70.40;;;;;;5025767;28;20520;-62
2022/12/19 01:27:59;;;;;;;35.03;21.13;;;4.60;70.40;;;;;;5029573;28;20136;-62
2022/12/19 01:30:26;;;;;;;33.63;20.48;;;4.60;70.50;;;;;;5023289;28;20128;-62
2022/12/19 01:32:59;;;;;;;35.53;20.88;;;4.60;70.40;;;;;;5041493;28;20033;-62
2022/12/19 01:35:27;;;;;;;36.03;20.08;;;4.70;70.50;;;;;;5024099;28;20133;-62
2022/12/19 01:37:53;;;;;;;37.10;22.05;;;4.70;70.50;;;;;;5050839;28;20405;-62
2022/12/19 01:40:35;;;;;;;35.03;21.10;;;4.70;70.50;;;;;;5019194;28;20140;-62
2022/12/19 01:43:02;;;;;;;36.75;20.80;;;4.70;70.40;;;;;;5041361;28;20124;-62
2022/12/19 01:45:37;;;;;;;34.60;20.98;;;4.70;70.50;;;;;;5049094;28;20413;-62
2022/12/19 01:48:34;;;;;;;32.60;21.17;;;4.70;70.50;;;;;;5032349;28;20052;-62
2022/12/19 01:51:10;;;;;;;34.90;19.90;;;4.70;70.70;;;;;;5037692;28;20121;-62
2022/12/19 01:53:42;;;;;;;32.90;20.52;;;4.80;71.30;;;;;;5034601;28;20045;-62
2022/12/19 01:56:19;;;;;;;37.38;21.38;;;4.80;71.20;;;;;;5014612;28;20034;-62
2022/12/19 01:58:51;;;;;;;31.25;20.92;;;4.70;70.50;;;;;;5032564;28;20041;-62
2022/12/19 02:01:36;;;;;;;34.67;20.52;;;4.80;70.60;;;;;;5016803;28;20058;-62
2022/12/19 02:04:19;;;;;;;32.97;20.15;;;4.80;70.60;;;;;;5034279;28;20059;-62
2022/12/19 02:06:50;;;;;;;36.08;21.67;;;4.80;70.60;;;;;;5006185;28;20099;-62
2022/12/19 02:09:17;;;;;;;39.78;21.65;;;4.80;70.60;;;;;;5000094;28;20411;-62
2022/12/19 02:11:49;;;;;;;36.53;20.97;;;4.90;70.70;;;;;;5033699;28;20056;-62
2022/12/19 02:14:19;;;;;;;34.55;20.90;;;4.90;70.70;;;;;;5018049;28;20300;-62
2022/12/19 02:17:38;;;;;;;32.70;19.47;;;4.90;70.80;;;;;;5001914;28;20069;-62
2022/12/19 02:20:43;;;;;;;33.67;19.95;;;4.90;71.10;;;;;;5019671;28;20129;-62
2022/12/19 02:23:51;;;;;;;32.88;20.02;;;4.90;71.00;;;;;;5023740;28;20103;-62
2022/12/19 02:26:45;;;;;;;30.25;18.50;;;5.00;71.00;;;;;;5010988;28;20042;-62
2022/12/19 02:29:35;;;;;;;31.45;18.00;;;5.00;71.00;;;;;;5023477;28;20613;-61
2022/12/19 02:32:26;;;;;;;33.00;18.63;;;5.00;71.00;;;;;;5045105;28;20049;-62
2022/12/19 02:35:12;;;;;;;32.63;19.80;;;5.00;70.70;;;;;;5029881;28;20049;-62
2022/12/19 02:37:51;;;;;;;31.58;18.90;;;5.00;71.00;;;;;;5039178;28;20049;-62
2022/12/19 02:40:26;;;;;;;33.90;20.05;;;5.00;70.90;;;;;;5027459;28;20041;-62
2022/12/19 02:43:01;;;;;;;32.08;19.30;;;5.00;70.90;;;;;;5035752;28;20060;-62
2022/12/19 02:45:34;;;;;;;32.08;19.48;;;5.10;71.10;;;;;;5022880;28;20444;-62
2022/12/19 02:48:04;;;;;;;30.10;18.38;;;5.10;71.00;;;;;;5027536;28;20509;-62
2022/12/19 02:50:41;;;;;;;31.40;19.08;;;5.10;71.10;;;;;;5020526;28;20083;-62
2022/12/19 02:53:13;;;;;;;31.40;19.52;;;5.10;71.10;;;;;;5026460;28;20128;-62
2022/12/19 02:56:08;;;;;;;32.83;19.85;;;5.10;71.20;;;;;;5028985;28;20069;-62
2022/12/19 02:59:21;;;;;;;33.90;20.67;;;5.10;71.60;;;;;;5012119;28;20045;-62
2022/12/19 03:02:31;;;;;;;32.58;20.13;;;5.10;71.60;;;;;;5032384;28;20110;-62
2022/12/19 03:05:15;;;;;;;27.52;18.05;;;5.20;71.60;;;;;;5032787;28;20120;-62
2022/12/19 03:08:13;;;;;;;31.90;20.38;;;5.20;71.20;;;;;;5036748;28;20132;-62
2022/12/19 03:10:45;;;;;;;29.10;18.90;;;5.20;71.50;;;;;;5008345;28;20041;-62
2022/12/19 03:13:20;;;;;;;31.05;19.95;;;5.20;71.10;;;;;;5030742;28;20498;-62
2022/12/19 03:15:51;;;;;;;33.28;19.63;;;5.20;71.30;;;;;;5030446;28;20091;-62
2022/12/19 03:18:20;;;;;;;32.63;19.90;;;5.20;71.40;;;;;;5024565;28;20072;-62
2022/12/19 03:21:09;;;;;;;39.13;21.02;;;5.20;71.40;;;;;;5053057;28;20560;-62
2022/12/19 03:23:37;;;;;;;29.40;19.45;;;5.20;72.00;;;;;;5020302;28;20053;-62
2022/12/19 03:26:27;;;;;;;36.00;20.48;;;5.20;71.50;;;;;;5042783;28;20657;-62
2022/12/19 03:29:02;;;;;;;31.95;21.45;;;5.20;72.20;;;;;;5041928;28;20058;-62
2022/12/19 03:31:31;;;;;;;32.35;20.48;;;5.20;71.70;;;;;;5052729;28;20076;-62
2022/12/19 03:34:02;;;;;;;26.88;19.27;;;5.20;71.70;;;;;;5034485;28;20041;-62
2022/12/19 03:36:37;;;;;;;31.48;19.10;;;5.20;71.90;;;;;;5025440;28;20061;-62
2022/12/19 03:39:13;;;;;;;32.30;19.65;;;5.20;71.90;;;;;;5048240;28;20072;-62
2022/12/19 03:44:32;;;;;;;32.38;20.00;;;5.20;72.00;;;;;;5042981;28;20044;-62
2022/12/19 03:47:13;;;;;;;35.78;20.75;;;5.20;72.20;;;;;;5036297;28;20049;-62
2022/12/19 03:49:44;;;;;;;31.75;20.63;;;5.20;72.40;;;;;;5008366;28;20133;-62
2022/12/19 03:52:53;;;;;;;31.77;19.42;;;5.30;72.40;;;;;;5030129;28;20056;-62
2022/12/19 03:55:44;;;;;;;34.13;20.27;;;5.30;73.00;;;;;;5041435;28;20037;-62
2022/12/19 03:58:26;;;;;;;33.17;19.95;;;5.30;72.80;;;;;;5046631;28;20061;-62
2022/12/19 04:00:54;;;;;;;29.80;19.23;;;5.30;72.50;;;;;;5025382;28;20042;-62
2022/12/19 04:03:24;;;;;;;35.35;20.13;;;5.30;72.50;;;;;;5047074;28;20044;-62
2022/12/19 04:05:53;;;;;;;28.08;18.70;;;5.30;72.70;;;;;;5051507;28;20556;-62
2022/12/19 04:08:22;;;;;;;29.15;20.27;;;5.30;72.70;;;;;;5049707;28;20041;-62
2022/12/19 04:10:54;;;;;;;33.40;18.85;;;5.40;72.80;;;;;;5031163;28;20049;-62
2022/12/19 04:13:32;;;;;;;23.73;13.80;;;5.40;72.90;;;;;;5039934;28;20086;-62
2022/12/19 04:16:20;;;;;;;28.63;18.48;;;5.40;73.20;;;;;;5051841;28;20304;-62
2022/12/19 04:18:55;;;;;;;33.08;19.48;;;5.40;73.40;;;;;;5025440;28;20037;-62
2022/12/19 04:21:30;;;;;;;33.00;19.83;;;5.40;73.10;;;;;;5031876;28;20125;-62
2022/12/19 04:24:05;;;;;;;32.15;18.88;;;5.50;73.10;;;;;;5050285;28;20051;-62
2022/12/19 04:26:40;;;;;;;31.58;18.80;;;5.50;73.20;;;;;;5051235;28;20524;-62
2022/12/19 04:29:11;;;;;;;31.00;20.10;;;5.50;73.20;;;;;;5018627;28;20057;-62
2022/12/19 04:31:38;;;;;;;29.92;18.40;;;5.50;73.20;;;;;;5031011;28;20063;-62
2022/12/19 04:34:05;;;;;;;30.10;18.90;;;5.50;73.20;;;;;;5048600;28;20036;-62
2022/12/19 04:36:31;;;;;;;29.05;18.77;;;5.60;73.30;;;;;;5032515;28;20129;-62
2022/12/19 04:39:00;;;;;;;33.00;20.20;;;5.60;73.30;;;;;;5034555;28;20052;-62
2022/12/19 04:41:30;;;;;;;30.73;18.35;;;5.60;73.30;;;;;;5041899;28;20418;-62
2022/12/19 04:43:57;;;;;;;26.30;17.23;;;5.70;73.30;;;;;;5044232;28;20044;-62
2022/12/19 04:46:31;;;;;;;28.73;18.65;;;5.70;73.30;;;;;;5036750;28;20053;-62
2022/12/19 04:49:01;;;;;;;27.23;17.73;;;5.70;73.30;;;;;;5037117;28;20490;-62
2022/12/19 04:51:28;;;;;;;30.48;19.42;;;5.70;73.30;;;;;;5041916;28;20037;-62
2022/12/19 04:53:57;;;;;;;33.25;18.67;;;5.70;73.40;;;;;;5030301;28;20125;-62
2022/12/19 04:56:23;;;;;;;28.63;17.58;;;5.80;73.50;;;;;;5029836;28;20049;-62
2022/12/19 04:58:56;;;;;;;29.38;18.15;;;5.80;73.60;;;;;;5008300;28;20041;-62
2022/12/19 05:01:25;;;;;;;;;;;5.80;73.60;;;;;;5046539;28;20044;-62
2022/12/19 05:03:52;;;;;;;29.13;16.90;;;5.80;74.20;;;;;;5044461;28;19967;-62
2022/12/19 05:06:29;;;;;;;35.08;19.27;;;5.90;73.10;;;;;;5046602;28;20049;-62
2022/12/19 05:09:04;;;;;;;31.92;18.55;;;5.90;73.10;;;;;;5034813;28;20100;-62
2022/12/19 05:11:31;;;;;;;30.27;17.58;;;5.90;73.20;;;;;;5038821;28;20076;-62
2022/12/19 05:14:00;;;;;;;26.80;17.55;;;5.90;73.40;;;;;;5013025;28;20061;-62
2022/12/19 05:16:30;;;;;;;29.90;17.80;;;5.90;73.50;;;;;;5016916;28;20062;-62
2022/12/19 05:18:57;;;;;;;31.05;19.35;;;5.90;73.60;;;;;;5016866;28;20053;-62
2022/12/19 05:21:23;;;;;;;26.77;19.40;;;6.00;73.80;;;;;;5028098;28;20114;-62
2022/12/19 05:23:50;;;;;;;30.38;18.75;;;6.00;73.80;;;;;;5010150;28;20494;-62
2022/12/19 05:26:24;;;;;;;26.67;18.80;;;6.00;73.80;;;;;;5031193;28;20052;-62
2022/12/19 05:28:56;;;;;;;27.80;16.00;;;6.00;73.90;;;;;;5030223;28;20133;-62
2022/12/19 05:31:24;;;;;;;27.80;17.00;;;6.00;73.90;;;;;;5029542;28;20038;-62
2022/12/19 05:33:58;;;;;;;26.83;18.88;;;6.10;74.00;;;;;;5022736;28;20835;-62
2022/12/19 05:36:30;;;;;;;27.40;18.02;;;6.10;74.00;;;;;;5030982;28;20394;-62
2022/12/19 05:38:59;;;;;;;26.83;17.92;;;6.10;74.10;;;;;;5025707;28;20037;-62
2022/12/19 05:41:25;;;;;;;28.80;18.15;;;6.10;74.20;;;;;;5026614;28;20060;-62
2022/12/19 05:43:55;;;;;;;27.92;16.73;;;6.10;74.30;;;;;;5027657;28;20055;-62
2022/12/19 05:46:23;;;;;;;25.67;17.15;;;6.20;74.40;;;;;;5029861;28;20129;-62
2022/12/19 05:48:50;;;;;;;27.55;17.38;;;6.20;74.40;;;;;;5029063;28;20038;-62
2022/12/19 05:51:17;;;;;;;25.60;16.83;;;6.20;74.40;;;;;;5024815;28;20068;-62
2022/12/19 05:53:44;;;;;;;25.25;15.70;;;6.30;74.60;;;;;;5018440;28;20115;-62
2022/12/19 05:56:14;;;;;;;29.25;20.50;;;6.30;74.60;;;;;;5007936;28;20034;-62
2022/12/19 05:58:41;;;;;;;25.20;19.15;;;6.30;74.60;;;;;;5005058;28;20044;-62
2022/12/19 06:01:11;;;;;;;24.23;17.83;;;6.40;74.70;;;;;;5012533;28;20498;-63
2022/12/19 06:03:38;;;;;;;22.60;16.65;;;6.40;74.70;;;;;;5032077;28;20045;-62
2022/12/19 06:06:09;;;;;;;24.52;16.15;;;6.40;74.60;;;;;;5030764;28;20059;-62
2022/12/19 06:08:36;;;;;;;26.05;16.23;;;6.50;74.80;;;;;;5028792;28;20073;-62
2022/12/19 06:11:04;;;;;;;23.25;15.93;;;6.50;74.80;;;;;;5029304;28;20490;-61
2022/12/19 06:13:32;;;;;;;28.85;18.77;;;6.50;74.80;;;;;;5015771;28;20148;-62
2022/12/19 06:16:08;;;;;;;29.38;21.23;;;6.50;74.90;;;;;;5037651;28;20033;-62
2022/12/19 06:18:36;;;;;;;23.50;16.77;;;6.50;75.20;;;;;;5010161;28;20050;-62
2022/12/19 06:21:15;;;;;;;22.70;14.45;;;6.60;75.20;;;;;;5010218;28;20205;-62
2022/12/19 06:23:45;;;;;;;15.88;11.25;;;6.60;75.20;;;;;;5020910;28;20521;-62
2022/12/19 06:26:15;;;;;;;13.57;10.07;;;6.70;75.50;;;;;;5020824;28;20129;-62
2022/12/19 06:28:51;;;;;;;13.88;9.80;;;6.70;75.60;;;;;;5025168;28;20107;-62
2022/12/19 06:31:19;;;;;;;10.05;7.25;;;6.80;75.80;;;;;;5027029;28;20045;-62
2022/12/19 06:33:46;;;;;;;10.32;8.18;;;6.80;76.20;;;;;;5027608;28;20049;-62
2022/12/19 06:36:20;;;;;;;9.73;7.45;;;6.90;76.60;;;;;;5041305;28;20049;-63
2022/12/19 06:38:47;;;;;;;7.55;6.75;;;6.90;77.10;;;;;;5031432;28;20088;-62
2022/12/19 06:44:03;;;;;;;7.45;6.07;;;7.10;77.60;;;;;;5031831;28;20077;-62
2022/12/19 06:46:30;;;;;;;8.48;6.22;;;7.20;78.00;;;;;;5031947;28;20687;-62
2022/12/19 06:48:57;;;;;;;8.57;6.47;;;7.40;78.30;;;;;;5029935;28;20046;-62
2022/12/19 06:51:24;;;;;;;7.15;5.70;;;7.50;78.60;;;;;;5033043;28;20045;-62
2022/12/19 06:53:51;;;;;;;8.30;5.60;;;7.60;78.80;;;;;;5030276;28;20099;-62
2022/12/19 06:56:17;;;;;;;6.95;5.57;;;7.70;78.80;;;;;;5029332;28;20043;-63
2022/12/19 06:58:45;;;;;;;6.53;4.78;;;7.90;79.60;;;;;;5031385;28;20405;-62
2022/12/19 07:01:32;;;;;;;6.78;5.30;;;8.00;79.00;;;;;;5032711;28;20137;-62
2022/12/19 07:03:59;;;;;;;8.30;5.63;;;8.10;79.40;;;;;;5028666;28;20045;-62
2022/12/19 07:06:27;;;;;;;7.28;5.63;;;8.20;78.80;;;;;;5033920;28;20047;-62
2022/12/19 07:08:53;;;;;;;7.85;5.95;;;8.30;78.90;;;;;;5029417;28;20077;-63
2022/12/19 07:11:20;;;;;;;6.55;5.43;;;8.40;79.00;;;;;;5016161;28;20490;-63
2022/12/19 07:13:46;;;;;;;7.60;5.93;;;8.50;79.00;;;;;;5034584;28;20060;-63
2022/12/19 07:16:13;;;;;;;7.50;5.72;;;8.60;79.50;;;;;;5028358;28;20037;-62
2022/12/19 07:18:40;;;;;;;6.57;5.30;;;8.70;78.80;;;;;;5028032;28;20096;-63
2022/12/19 07:21:10;;;;;;;7.47;5.05;;;8.80;78.60;;;;;;5031899;28;20106;-63
2022/12/19 07:23:37;;;;;;;6.28;5.43;;;8.90;78.30;;;;;;5037470;28;20079;-63
2022/12/19 07:26:04;;;;;;;7.95;5.25;;;8.90;78.10;;;;;;5027291;28;20391;-63
2022/12/19 07:28:33;;;;;;;6.47;5.00;;;9.00;77.90;;;;;;5040672;28;20477;-63
2022/12/19 07:30:59;;;;;;;5.82;5.28;;;9.00;77.80;;;;;;5034996;28;20037;-62
2022/12/19 07:33:26;;;;;;;7.55;5.20;;;9.10;77.70;;;;;;5041377;28;20033;-63
2022/12/19 07:35:53;;;;;;;6.70;5.72;;;9.10;77.70;;;;;;5032920;28;20038;-62
2022/12/19 07:38:19;;;;;;;8.98;5.38;;;9.10;77.60;;;;;;5041121;28;20038;-63
2022/12/19 07:40:46;;;;;;;7.80;5.05;;;9.20;77.50;;;;;;5034885;28;20037;-63
2022/12/19 07:43:13;;;;;;;5.47;4.80;;;9.20;77.40;;;;;;5047464;28;20115;-62
2022/12/19 07:45:41;;;;;;;5.97;5.07;;;9.30;77.30;;;;;;5025638;28;20052;-62
2022/12/19 07:48:08;;;;;;;7.65;5.30;;;9.30;77.20;;;;;;5031890;28;20041;-62
2022/12/19 07:50:35;;;;;;;6.90;5.00;;;9.30;77.00;;;;;;5034814;28;20068;-63
2022/12/19 07:53:02;;;;;;;7.57;5.88;;;9.30;77.00;;;;;;5042665;28;20586;-63
2022/12/19 07:55:29;;;;;;;9.13;5.47;;;9.40;76.90;;;;;;5034557;28;20037;-62
2022/12/19 07:57:56;;;;;;;8.95;5.57;;;9.40;76.80;;;;;;5039284;28;20036;-63
2022/12/19 08:00:25;;;;;;;6.00;5.32;;;9.40;76.70;;;;;;5031938;28;20037;-63
2022/12/19 08:02:52;;;;;;;8.18;5.63;;;9.40;76.70;;;;;;5022026;28;20037;-63
2022/12/19 08:05:19;;;;;;;5.90;5.30;;;9.40;76.90;;;;;;5032754;28;20124;-62
2022/12/19 08:07:45;;;;;;;9.13;5.50;;;9.40;76.90;;;;;;5040037;28;20054;-63
2022/12/19 08:10:13;;;;;;;7.20;5.32;;;9.50;76.90;;;;;;5026913;28;20128;-62
2022/12/19 08:12:40;;;;;;;10.00;5.82;;;9.50;76.90;;;;;;5031100;28;20409;-63
2022/12/19 08:15:07;;;;;;;6.03;5.43;;;9.50;76.70;;;;;;5024819;28;20037;-63
2022/12/19 08:17:35;;;;;;;6.32;5.70;;;9.50;76.60;;;;;;5038776;28;20117;-63
2022/12/19 08:20:02;;;;;;;5.97;5.20;;;9.50;76.60;;;;;;5028358;28;20120;-63
2022/12/19 08:22:30;;;;;;;7.78;5.65;;;9.60;76.50;;;;;;5029143;28;20064;-63
2022/12/19 08:24:56;;;;;;;8.52;6.20;;;9.60;76.60;;;;;;5028437;28;20041;-63
2022/12/19 08:27:24;;;;;;;6.78;5.95;;;9.60;76.60;;;;;;5037652;28;20052;-63
2022/12/19 08:29:50;;;;;;;7.15;5.82;;;9.60;76.60;;;;;;5043085;28;20045;-63
2022/12/19 08:32:18;;;;;;;8.80;5.28;;;9.70;76.60;;;;;;5027264;28;20128;-62
2022/12/19 08:34:48;;;;;;;8.40;5.80;;;9.70;76.60;;;;;;5027097;28;20056;-63
2022/12/19 08:37:15;;;;;;;6.15;5.35;;;9.70;76.60;;;;;;5038686;28;20041;-63
2022/12/19 08:39:42;;;;;;;6.93;5.68;;;9.70;76.60;;;;;;5025474;28;20593;-62
2022/12/19 08:42:08;;;;;;;6.65;5.22;;;9.80;76.60;;;;;;5023950;28;20038;-63
2022/12/19 08:44:35;;;;;;;7.40;5.53;;;9.80;76.60;;;;;;5036291;28;20442;-63
2022/12/19 08:47:02;;;;;;;7.60;5.82;;;9.80;76.50;;;;;;5037409;28;20540;-63
2022/12/19 08:49:29;;;;;;;7.88;5.25;;;9.80;76.50;;;;;;5044216;28;20052;-63
2022/12/19 08:51:56;;;;;;;6.22;5.63;;;9.90;76.60;;;;;;5041244;28;20531;-62
2022/12/19 08:54:23;;;;;;;6.78;5.32;;;9.90;76.60;;;;;;5026812;28;20042;-63
2022/12/19 08:56:52;;;;;;;6.30;5.70;;;9.90;76.50;;;;;;5034155;28;20042;-63
2022/12/19 08:59:19;;;;;;;7.07;5.28;;;9.90;76.40;;;;;;5034035;28;20137;-63
2022/12/19 09:01:57;;;;;;;7.28;6.18;;;10.00;76.40;;;;;;5033764;28;20072;-63
2022/12/19 09:04:25;;;;;;;9.60;6.18;;;10.00;76.30;;;;;;5036829;28;20041;-63
2022/12/19 09:07:12;;;;;;;8.20;6.22;;;10.00;76.30;;;;;;5045753;28;20049;-63
2022/12/19 09:09:42;;;;;;;6.45;5.53;;;10.00;76.20;;;;;;5039655;28;20050;-63
2022/12/19 09:12:09;;;;;;;7.38;5.57;;;10.10;76.30;;;;;;5036473;28;20045;-63
2022/12/19 09:14:35;;;;;;;6.28;5.00;;;10.10;76.30;;;;;;5036905;28;20051;-63
2022/12/19 09:17:02;;;;;;;8.65;6.18;;;10.10;76.20;;;;;;5044925;28;20045;-63
2022/12/19 09:19:31;;;;;;;6.97;5.82;;;10.10;76.20;;;;;;5032595;28;20865;-63
2022/12/19 09:21:58;;;;;;;5.72;5.07;;;10.20;76.30;;;;;;5040371;28;20111;-63
2022/12/19 09:24:25;;;;;;;7.03;6.22;;;10.20;76.30;;;;;;5035061;28;20040;-63
2022/12/19 09:26:51;;;;;;;5.13;4.63;;;10.20;76.20;;;;;;5028731;28;20076;-64
2022/12/19 09:29:18;;;;;;;7.57;5.55;;;10.30;76.20;;;;;;5023328;28;20042;-63
2022/12/19 09:31:48;;;;;;;7.78;5.22;;;10.30;76.20;;;;;;5028938;28;20041;-63
2022/12/19 09:34:27;;;;;;;6.75;4.90;;;10.30;76.00;;;;;;5031757;28;20513;-63
2022/12/19 09:37:09;;;;;;;5.45;4.95;;;10.40;76.10;;;;;;5036448;28;20037;-63
2022/12/19 09:39:47;;;;;;;7.57;4.90;;;10.50;76.00;;;;;;5023949;28;20045;-62
2022/12/19 09:42:40;;;;;;;5.57;4.55;;;10.50;75.80;;;;;;5036375;28;20116;-63
2022/12/19 09:45:07;;;;;;;5.82;5.20;;;10.60;75.70;;;;;;5039351;28;20068;-63
2022/12/19 09:47:40;;;;;;;6.68;5.25;;;10.60;75.40;;;;;;5030706;28;20636;-63
2022/12/19 09:50:34;;;;;;;6.25;5.30;;;10.60;75.40;;;;;;5030960;28;20514;-63
2022/12/19 09:53:09;;;;;;;5.65;4.57;;;10.70;75.30;;;;;;5042059;28;20049;-63
2022/12/19 09:55:40;;;;;;;5.60;5.10;;;10.70;75.10;;;;;;5025537;28;20115;-63
2022/12/19 09:58:36;;;;;;;6.68;4.78;;;10.80;75.00;;;;;;5029784;28;20428;-62
2022/12/19 10:01:11;;;;;;;5.95;4.85;;;10.80;75.00;;;;;;5035647;28;20661;-63
2022/12/19 10:03:42;;;;;;;5.13;4.63;;;10.90;74.80;;;;;;5027999;28;20041;-62
2022/12/19 10:06:18;;;;;;;4.73;4.07;;;10.90;74.60;;;;;;5025955;28;20046;-62
2022/12/19 10:09:14;;;;;;;5.72;3.70;;;11.00;74.60;;;;;;5030078;28;20075;-61
2022/12/19 10:12:35;;;;;;;6.82;5.50;;;11.00;74.40;;;;;;5026007;28;20053;-61
2022/12/19 10:15:41;;;;;;;5.15;3.90;;;11.00;74.10;;;;;;5031257;28;20128;-62
2022/12/19 10:18:15;;;;;;;4.95;4.43;;;11.10;74.00;;;;;;5044097;28;20037;-62
2022/12/19 10:20:54;;;;;;;5.40;4.38;;;11.10;73.90;;;;;;5029099;28;20041;-62
2022/12/19 10:23:51;;;;;;;5.13;3.65;;;11.20;73.80;;;;;;5024271;28;20746;-62
2022/12/19 10:26:45;;;;;;;4.13;3.28;;;11.20;73.80;;;;;;5047499;28;20116;-62
2022/12/19 10:29:42;;;;;;;3.83;3.30;;;11.20;73.60;;;;;;5042291;28;20076;-62
2022/12/19 10:32:21;;;;;;;4.35;3.15;;;11.20;73.50;;;;;;5052319;28;20048;-62
2022/12/19 10:34:50;;;;;;;3.85;3.38;;;11.30;73.50;;;;;;5027288;28;20588;-62
2022/12/19 10:37:20;;;;;;;3.03;2.72;;;11.30;73.30;;;;;;5044312;28;20037;-62
2022/12/19 10:40:00;;;;;;;4.20;3.38;;;11.30;73.40;;;;;;5028978;28;20091;-62
2022/12/19 10:42:46;;;;;;;5.82;3.35;;;11.30;73.30;;;;;;5032425;28;20045;-61
2022/12/19 10:45:17;;;;;;;3.85;3.10;;;11.40;73.20;;;;;;5035758;28;20049;-62
2022/12/19 10:47:50;;;;;;;3.47;3.13;;;11.40;73.20;;;;;;5078319;22;20129;-50
2022/12/19 10:50:24;;;;;;;4.07;3.35;;;11.40;73.00;;;;;;5052297;28;20071;-51
2022/12/19 10:53:06;;;;;;;4.22;3.78;;;11.40;72.90;;;;;;5050800;28;20576;-53
2022/12/19 10:55:48;;;;;;;4.45;3.35;;;11.40;72.80;;;;;;5053463;28;20390;-52
2022/12/19 10:58:35;;;;;;;3.60;2.85;;;11.50;72.80;;;;;;5046183;28;20044;-53
2022/12/19 11:01:24;;;;;;;3.85;2.90;;;11.50;72.80;;;;;;5035581;28;20065;-54
2022/12/19 11:04:14;;;;;;;3.25;2.95;;;11.50;72.70;;;;;;5023970;28;20056;-53
2022/12/19 11:06:47;;;;;;;3.58;2.72;;;11.50;72.50;;;;;;5026024;28;20135;-53
2022/12/19 11:09:19;;;;;;;2.78;2.53;;;11.60;72.50;;;;;;5041527;28;20037;-49
2022/12/19 11:11:47;;;;;;;2.17;1.98;;;11.60;72.40;;;;;;5037113;28;20037;-51
2022/12/19 11:14:36;;;;;;;2.65;2.45;;;11.50;72.40;;;;;;5032067;28;20045;-54
2022/12/19 11:17:35;;;;;;;2.95;2.58;;;11.60;72.50;;;;;;5050369;28;20049;-53
2022/12/19 11:20:22;;;;;;;3.67;2.60;;;11.70;72.50;;;;;;5038622;28;20037;-54
2022/12/19 11:23:14;;;;;;;3.15;2.72;;;11.70;72.40;;;;;;5044899;28;20049;-53
2022/12/19 11:26:03;;;;;;;3.90;2.92;;;11.70;72.20;;;;;;5043812;28;20050;-54
2022/12/19 11:28:50;;;;;;;2.80;2.22;;;11.80;72.40;;;;;;5041857;28;20045;-53
2022/12/19 11:31:39;;;;;;;2.45;2.25;;;11.80;72.40;;;;;;5030061;28;20052;-53
2022/12/19 11:34:29;;;;;;;2.63;2.13;;;11.90;72.20;;;;;;5038997;28;20048;-53
2022/12/19 11:37:00;;;;;;;2.70;2.00;;;12.00;72.70;;;;;;5050424;28;20041;-51
2022/12/19 11:39:39;;;;;;;4.25;2.17;;;12.00;71.90;;;;;;5036720;28;20033;-52
2022/12/19 11:42:19;;;;;;;3.40;2.25;;;12.10;71.70;;;;;;5037588;28;20034;-51
2022/12/19 11:44:57;;;;;;;2.47;1.83;;;12.20;71.70;;;;;;5037145;28;20041;-50
2022/12/19 11:47:31;;;;;;;2.80;2.42;;;12.20;71.40;;;;;;5033026;28;20041;-55
2022/12/19 11:50:02;;;;;;;3.50;2.05;;;12.30;71.60;;;;;;5030766;28;20038;-55
2022/12/19 11:52:51;;;;;;;3.40;2.30;;;12.40;71.40;;;;;;5033373;28;20071;-55
2022/12/19 11:55:52;;;;;;;3.08;2.10;;;12.70;71.00;;;;;;5034900;28;20311;-52
2022/12/19 11:58:21;;;;;;;2.70;2.33;;;12.50;70.70;;;;;;5037224;28;20124;-53
2022/12/19 12:01:03;;;;;;;3.95;2.70;;;12.60;70.50;;;;;;5038958;28;20458;-52
2022/12/19 12:04:15;;;;;;;2.20;1.85;;;12.70;70.10;;;;;;5040811;28;20121;-54
2022/12/19 12:06:52;;;;;;;2.25;2.05;;;12.70;69.60;;;;;;5037736;28;20041;-54
2022/12/19 12:09:51;;;;;;;2.65;1.98;;;12.80;70.00;;;;;;5032332;28;20107;-52
2022/12/19 12:12:41;;;;;;;3.25;1.85;;;12.90;69.30;;;;;;5027650;28;20056;-51
2022/12/19 12:15:59;;;;;;;2.67;1.58;;;12.90;69.60;;;;;;5047317;28;20052;-54
2022/12/19 12:19:30;;;;;;;2.20;2.00;;;13.00;68.90;;;;;;5032210;28;20045;-53
2022/12/19 12:22:55;;;;;;;3.13;2.13;;;13.10;68.80;;;;;;5039960;28;20029;-54
2022/12/19 12:26:02;;;;;;;2.47;1.88;;;13.10;68.50;;;;;;5025038;28;20050;-54
2022/12/19 12:29:25;;;;;;;3.33;2.83;;;13.20;68.50;;;;;;5042696;28;20068;-52
2022/12/19 12:32:15;;;;;;;;;;;13.20;68.10;;;;;;5043154;28;20124;-55
2022/12/19 12:35:38;;;;;;;2.63;2.20;;;13.30;68.90;;;;;;5035387;28;19927;-54
2022/12/19 12:38:43;;;;;;;;;;;13.30;68.30;;;;;;5047166;28;20037;-54
2022/12/19 12:44:29;;;;;;;1.73;1.48;;;13.40;67.80;;;;;;5038813;28;20043;-55
2022/12/19 12:47:19;;;;;;;2.33;2.10;;;13.40;68.30;;;;;;5031194;28;20110;-53
2022/12/19 12:50:02;;;;;;;2.25;1.90;;;13.50;67.50;;;;;;5031478;28;20049;-53
2022/12/19 12:52:36;;;;;;;2.38;2.00;;;13.50;67.40;;;;;;5029960;28;20049;-50
2022/12/19 12:55:39;;;;;;;2.65;2.10;;;13.50;67.40;;;;;;5028015;28;20062;-51
2022/12/19 12:58:44;;;;;;;2.90;2.10;;;13.60;67.00;;;;;;5035099;28;20044;-54
2022/12/19 13:01:16;;;;;;;2.10;1.90;;;13.60;66.30;;;;;;5034929;28;20136;-50
2022/12/19 13:03:51;;;;;;;;;;;13.70;66.90;;;;;;5048818;28;20065;-51
2022/12/19 13:06:30;;;;;;;2.20;1.70;;;13.70;67.10;;;;;;5033595;28;19928;-53
2022/12/19 13:09:12;;;;;;;3.13;2.30;;;13.70;66.80;;;;;;5043702;28;20041;-54
2022/12/19 13:14:32;;;;;;;2.00;1.80;;;13.70;66.40;;;;;;5034464;28;20724;-54
2022/12/19 13:17:00;;;;;;;3.38;1.65;;;13.80;66.30;;;;;;5037760;28;20095;-54
2022/12/19 13:19:32;;;;;;;3.33;2.42;;;13.80;66.30;;;;;;5041533;28;20079;-55
2022/12/19 13:22:08;;;;;;;2.05;1.85;;;13.80;65.80;;;;;;5029849;28;20120;-51
2022/12/19 13:24:54;;;;;;;3.00;1.98;;;13.80;65.20;;;;;;5030844;28;20037;-52
2022/12/19 13:27:20;;;;;;;1.60;1.50;;;13.80;65.10;;;;;;5037913;28;20401;-54
2022/12/19 13:30:11;;;;;;;1.42;1.33;;;13.70;65.60;;;;;;5010645;28;20046;-52
2022/12/19 13:32:37;;;;;;;2.60;1.85;;;13.70;64.60;;;;;;5017314;28;20053;-49
2022/12/19 13:35:28;;;;;;;1.92;1.80;;;13.80;65.40;;;;;;5027274;28;20045;-54
2022/12/19 13:38:21;;;;;;;3.47;2.10;;;13.80;64.50;;;;;;5031234;28;20518;-54
2022/12/19 13:44:11;;;;;;;2.17;1.67;;;13.80;64.60;;;;;;5027630;28;20111;-53
2022/12/19 13:46:40;;;;;;;3.05;2.30;;;13.80;65.10;;;;;;5032040;28;20123;-54